sensor_id;sensor_type;location;lat;lon;timestamp;P1;durP1;ratioP1;P2;durP2;ratioP2
36827;SDS011;22766;48.042;11.192;2024-01-27T00:02:09;1.10;;;0.60;;
36827;SDS011;22766;48.042;11.192;2024-01-27T00:04:36;3.25;;;0.50;;
36827;SDS011;22766;48.042;11.192;2024-01-27T00:07:05;2.47;;;0.63;;
36827;SDS011;22766;48.042;11.192;2024-01-27T00:09:33;1.10;;;0.50;;
36827;SDS011;22766;48.042;11.192;2024-01-27T00:12:00;4.53;;;0.45;;
36827;SDS011;22766;48.042;11.192;2024-01-27T00:14:27;0.85;;;0.63;;
36827;SDS011;22766;48.042;11.192;2024-01-27T00:16:54;2.67;;;0.50;;
36827;SDS011;22766;48.042;11.192;2024-01-27T00:19:21;6.10;;;0.88;;
36827;SDS011;22766;48.042;11.192;2024-01-27T00:21:48;2.33;;;0.50;;
36827;SDS011;22766;48.042;11.192;2024-01-27T00:24:15;1.23;;;0.70;;
36827;SDS011;22766;48.042;11.192;2024-01-27T00:26:42;1.38;;;0.60;;
36827;SDS011;22766;48.042;11.192;2024-01-27T00:29:10;0.95;;;0.50;;
36827;SDS011;22766;48.042;11.192;2024-01-27T00:31:37;1.73;;;0.50;;
36827;SDS011;22766;48.042;11.192;2024-01-27T00:34:04;2.10;;;0.50;;
36827;SDS011;22766;48.042;11.192;2024-01-27T00:36:31;1.67;;;0.50;;
36827;SDS011;22766;48.042;11.192;2024-01-27T00:38:58;4.28;;;0.63;;
36827;SDS011;22766;48.042;11.192;2024-01-27T00:41:24;1.67;;;0.88;;
36827;SDS011;22766;48.042;11.192;2024-01-27T00:43:51;1.77;;;0.57;;
36827;SDS011;22766;48.042;11.192;2024-01-27T00:46:18;4.18;;;1.00;;
36827;SDS011;22766;48.042;11.192;2024-01-27T00:48:44;1.15;;;0.50;;
36827;SDS011;22766;48.042;11.192;2024-01-27T00:51:11;0.95;;;0.40;;
36827;SDS011;22766;48.042;11.192;2024-01-27T00:53:38;3.15;;;0.40;;
36827;SDS011;22766;48.042;11.192;2024-01-27T00:56:06;0.93;;;0.50;;
36827;SDS011;22766;48.042;11.192;2024-01-27T00:58:33;3.55;;;0.70;;
36827;SDS011;22766;48.042;11.192;2024-01-27T01:01:00;2.35;;;0.50;;
36827;SDS011;22766;48.042;11.192;2024-01-27T01:03:27;2.55;;;0.80;;
36827;SDS011;22766;48.042;11.192;2024-01-27T01:05:54;0.70;;;0.60;;
36827;SDS011;22766;48.042;11.192;2024-01-27T01:08:21;2.63;;;0.85;;
36827;SDS011;22766;48.042;11.192;2024-01-27T01:10:48;2.30;;;0.93;;
36827;SDS011;22766;48.042;11.192;2024-01-27T01:13:15;3.78;;;0.70;;
36827;SDS011;22766;48.042;11.192;2024-01-27T01:15:42;4.75;;;0.90;;
36827;SDS011;22766;48.042;11.192;2024-01-27T01:18:08;1.38;;;0.50;;
36827;SDS011;22766;48.042;11.192;2024-01-27T01:20:36;2.55;;;0.68;;
36827;SDS011;22766;48.042;11.192;2024-01-27T01:23:02;2.40;;;0.80;;
36827;SDS011;22766;48.042;11.192;2024-01-27T01:25:29;0.68;;;0.60;;
36827;SDS011;22766;48.042;11.192;2024-01-27T01:27:57;1.17;;;0.60;;
36827;SDS011;22766;48.042;11.192;2024-01-27T01:30:23;2.90;;;0.90;;
36827;SDS011;22766;48.042;11.192;2024-01-27T01:32:50;2.15;;;0.70;;
36827;SDS011;22766;48.042;11.192;2024-01-27T01:35:18;2.30;;;1.25;;
36827;SDS011;22766;48.042;11.192;2024-01-27T01:37:45;1.40;;;0.38;;
36827;SDS011;22766;48.042;11.192;2024-01-27T01:40:14;3.17;;;0.70;;
36827;SDS011;22766;48.042;11.192;2024-01-27T01:42:42;1.85;;;0.50;;
36827;SDS011;22766;48.042;11.192;2024-01-27T01:45:09;2.00;;;0.82;;
36827;SDS011;22766;48.042;11.192;2024-01-27T01:47:39;0.95;;;0.60;;
36827;SDS011;22766;48.042;11.192;2024-01-27T01:50:06;3.00;;;0.60;;
36827;SDS011;22766;48.042;11.192;2024-01-27T01:52:33;4.10;;;0.68;;
36827;SDS011;22766;48.042;11.192;2024-01-27T01:55:00;2.45;;;0.57;;
36827;SDS011;22766;48.042;11.192;2024-01-27T01:57:27;2.88;;;0.70;;
36827;SDS011;22766;48.042;11.192;2024-01-27T01:59:54;1.60;;;0.80;;
36827;SDS011;22766;48.042;11.192;2024-01-27T02:02:22;3.50;;;0.70;;
36827;SDS011;22766;48.042;11.192;2024-01-27T02:04:48;4.30;;;0.90;;
36827;SDS011;22766;48.042;11.192;2024-01-27T02:07:15;3.15;;;0.60;;
36827;SDS011;22766;48.042;11.192;2024-01-27T02:09:42;6.45;;;0.77;;
36827;SDS011;22766;48.042;11.192;2024-01-27T02:12:10;1.40;;;0.60;;
36827;SDS011;22766;48.042;11.192;2024-01-27T02:14:37;4.32;;;0.82;;
36827;SDS011;22766;48.042;11.192;2024-01-27T02:17:04;0.60;;;0.55;;
36827;SDS011;22766;48.042;11.192;2024-01-27T02:19:32;4.00;;;0.70;;
36827;SDS011;22766;48.042;11.192;2024-01-27T02:21:59;1.08;;;0.52;;
36827;SDS011;22766;48.042;11.192;2024-01-27T02:24:26;1.55;;;0.90;;
36827;SDS011;22766;48.042;11.192;2024-01-27T02:26:55;2.35;;;0.70;;
36827;SDS011;22766;48.042;11.192;2024-01-27T02:29:22;3.25;;;1.08;;
36827;SDS011;22766;48.042;11.192;2024-01-27T02:31:49;1.63;;;0.73;;
36827;SDS011;22766;48.042;11.192;2024-01-27T02:34:16;1.40;;;0.70;;
36827;SDS011;22766;48.042;11.192;2024-01-27T02:36:43;3.05;;;0.60;;
36827;SDS011;22766;48.042;11.192;2024-01-27T02:39:10;4.75;;;1.33;;
36827;SDS011;22766;48.042;11.192;2024-01-27T02:41:37;4.63;;;0.98;;
36827;SDS011;22766;48.042;11.192;2024-01-27T02:44:05;3.67;;;1.08;;
36827;SDS011;22766;48.042;11.192;2024-01-27T02:46:32;1.40;;;1.00;;
36827;SDS011;22766;48.042;11.192;2024-01-27T02:48:59;5.47;;;0.93;;
36827;SDS011;22766;48.042;11.192;2024-01-27T02:51:26;2.92;;;0.85;;
36827;SDS011;22766;48.042;11.192;2024-01-27T02:53:53;0.90;;;0.63;;
36827;SDS011;22766;48.042;11.192;2024-01-27T02:56:20;2.40;;;0.73;;
36827;SDS011;22766;48.042;11.192;2024-01-27T02:58:47;5.93;;;0.75;;
36827;SDS011;22766;48.042;11.192;2024-01-27T03:01:14;1.55;;;0.60;;
36827;SDS011;22766;48.042;11.192;2024-01-27T03:03:41;3.25;;;0.70;;
36827;SDS011;22766;48.042;11.192;2024-01-27T03:06:08;2.38;;;0.85;;
36827;SDS011;22766;48.042;11.192;2024-01-27T03:08:35;2.40;;;0.65;;
36827;SDS011;22766;48.042;11.192;2024-01-27T03:11:02;2.42;;;0.85;;
36827;SDS011;22766;48.042;11.192;2024-01-27T03:13:28;0.75;;;0.52;;
36827;SDS011;22766;48.042;11.192;2024-01-27T03:15:55;3.22;;;0.60;;
36827;SDS011;22766;48.042;11.192;2024-01-27T03:18:22;1.38;;;0.70;;
36827;SDS011;22766;48.042;11.192;2024-01-27T03:20:51;1.15;;;0.68;;
36827;SDS011;22766;48.042;11.192;2024-01-27T03:23:18;2.85;;;0.93;;
36827;SDS011;22766;48.042;11.192;2024-01-27T03:25:45;1.00;;;0.60;;
36827;SDS011;22766;48.042;11.192;2024-01-27T03:28:12;2.45;;;0.70;;
36827;SDS011;22766;48.042;11.192;2024-01-27T03:30:39;4.25;;;0.88;;
36827;SDS011;22766;48.042;11.192;2024-01-27T03:33:05;6.72;;;0.82;;
36827;SDS011;22766;48.042;11.192;2024-01-27T03:35:37;2.45;;;0.70;;
36827;SDS011;22766;48.042;11.192;2024-01-27T03:38:05;4.90;;;0.80;;
36827;SDS011;22766;48.042;11.192;2024-01-27T03:40:32;2.60;;;0.88;;
36827;SDS011;22766;48.042;11.192;2024-01-27T03:42:59;2.22;;;0.93;;
36827;SDS011;22766;48.042;11.192;2024-01-27T03:45:25;3.63;;;0.90;;
36827;SDS011;22766;48.042;11.192;2024-01-27T03:47:52;2.90;;;0.82;;
36827;SDS011;22766;48.042;11.192;2024-01-27T03:50:20;5.18;;;0.90;;
36827;SDS011;22766;48.042;11.192;2024-01-27T03:52:47;0.77;;;0.60;;
36827;SDS011;22766;48.042;11.192;2024-01-27T03:55:13;1.48;;;0.90;;
36827;SDS011;22766;48.042;11.192;2024-01-27T03:57:40;1.80;;;0.65;;
36827;SDS011;22766;48.042;11.192;2024-01-27T04:00:07;2.55;;;0.70;;
36827;SDS011;22766;48.042;11.192;2024-01-27T04:02:34;2.97;;;0.77;;
36827;SDS011;22766;48.042;11.192;2024-01-27T04:05:01;1.60;;;0.80;;
36827;SDS011;22766;48.042;11.192;2024-01-27T04:07:27;2.95;;;0.80;;
36827;SDS011;22766;48.042;11.192;2024-01-27T04:09:54;1.58;;;0.90;;
36827;SDS011;22766;48.042;11.192;2024-01-27T04:12:21;2.03;;;0.80;;
36827;SDS011;22766;48.042;11.192;2024-01-27T04:14:48;2.50;;;0.73;;
36827;SDS011;22766;48.042;11.192;2024-01-27T04:17:15;3.13;;;1.42;;
36827;SDS011;22766;48.042;11.192;2024-01-27T04:19:41;3.65;;;1.05;;
36827;SDS011;22766;48.042;11.192;2024-01-27T04:22:08;4.25;;;1.17;;
36827;SDS011;22766;48.042;11.192;2024-01-27T04:24:35;3.72;;;0.90;;
36827;SDS011;22766;48.042;11.192;2024-01-27T04:27:02;5.32;;;0.73;;
36827;SDS011;22766;48.042;11.192;2024-01-27T04:29:29;1.77;;;0.82;;
36827;SDS011;22766;48.042;11.192;2024-01-27T04:31:56;4.53;;;0.73;;
36827;SDS011;22766;48.042;11.192;2024-01-27T04:34:22;4.07;;;1.35;;
36827;SDS011;22766;48.042;11.192;2024-01-27T04:36:49;1.67;;;0.80;;
36827;SDS011;22766;48.042;11.192;2024-01-27T04:39:16;1.00;;;0.77;;
36827;SDS011;22766;48.042;11.192;2024-01-27T04:41:43;3.35;;;1.00;;
36827;SDS011;22766;48.042;11.192;2024-01-27T04:44:13;2.15;;;0.75;;
36827;SDS011;22766;48.042;11.192;2024-01-27T04:46:40;2.83;;;1.08;;
36827;SDS011;22766;48.042;11.192;2024-01-27T04:49:06;3.20;;;0.85;;
36827;SDS011;22766;48.042;11.192;2024-01-27T04:51:33;3.47;;;1.02;;
36827;SDS011;22766;48.042;11.192;2024-01-27T04:54:00;4.88;;;1.17;;
36827;SDS011;22766;48.042;11.192;2024-01-27T04:56:27;3.28;;;0.70;;
36827;SDS011;22766;48.042;11.192;2024-01-27T04:58:54;1.15;;;0.80;;
36827;SDS011;22766;48.042;11.192;2024-01-27T05:01:21;3.20;;;1.15;;
36827;SDS011;22766;48.042;11.192;2024-01-27T05:03:48;4.45;;;1.30;;
36827;SDS011;22766;48.042;11.192;2024-01-27T05:06:15;3.83;;;1.38;;
36827;SDS011;22766;48.042;11.192;2024-01-27T05:08:42;2.38;;;1.60;;
36827;SDS011;22766;48.042;11.192;2024-01-27T05:11:09;4.97;;;1.10;;
36827;SDS011;22766;48.042;11.192;2024-01-27T05:13:36;2.95;;;1.10;;
36827;SDS011;22766;48.042;11.192;2024-01-27T05:16:06;3.08;;;1.33;;
36827;SDS011;22766;48.042;11.192;2024-01-27T05:18:33;2.60;;;1.33;;
36827;SDS011;22766;48.042;11.192;2024-01-27T05:21:00;3.20;;;1.27;;
36827;SDS011;22766;48.042;11.192;2024-01-27T05:23:27;1.90;;;1.08;;
36827;SDS011;22766;48.042;11.192;2024-01-27T05:25:53;2.97;;;1.20;;
36827;SDS011;22766;48.042;11.192;2024-01-27T05:28:21;1.27;;;1.13;;
36827;SDS011;22766;48.042;11.192;2024-01-27T05:30:48;2.85;;;1.30;;
36827;SDS011;22766;48.042;11.192;2024-01-27T05:33:14;3.58;;;1.10;;
36827;SDS011;22766;48.042;11.192;2024-01-27T05:35:43;2.70;;;1.45;;
36827;SDS011;22766;48.042;11.192;2024-01-27T05:38:10;1.90;;;1.30;;
36827;SDS011;22766;48.042;11.192;2024-01-27T05:40:36;10.75;;;3.80;;
36827;SDS011;22766;48.042;11.192;2024-01-27T05:43:07;7.78;;;4.10;;
36827;SDS011;22766;48.042;11.192;2024-01-27T05:45:34;10.55;;;5.40;;
36827;SDS011;22766;48.042;11.192;2024-01-27T05:48:01;8.10;;;3.10;;
36827;SDS011;22766;48.042;11.192;2024-01-27T05:50:28;6.15;;;2.88;;
36827;SDS011;22766;48.042;11.192;2024-01-27T05:52:57;5.00;;;2.72;;
36827;SDS011;22766;48.042;11.192;2024-01-27T05:55:24;3.50;;;1.70;;
36827;SDS011;22766;48.042;11.192;2024-01-27T05:57:50;9.48;;;1.85;;
36827;SDS011;22766;48.042;11.192;2024-01-27T06:00:17;3.38;;;1.83;;
36827;SDS011;22766;48.042;11.192;2024-01-27T06:02:44;3.38;;;1.42;;
36827;SDS011;22766;48.042;11.192;2024-01-27T06:05:11;3.72;;;1.63;;
36827;SDS011;22766;48.042;11.192;2024-01-27T06:07:38;3.22;;;1.33;;
36827;SDS011;22766;48.042;11.192;2024-01-27T06:10:09;4.55;;;1.65;;
36827;SDS011;22766;48.042;11.192;2024-01-27T06:12:36;4.78;;;1.67;;
36827;SDS011;22766;48.042;11.192;2024-01-27T06:15:04;5.03;;;1.75;;
36827;SDS011;22766;48.042;11.192;2024-01-27T06:17:32;3.80;;;1.60;;
36827;SDS011;22766;48.042;11.192;2024-01-27T06:19:59;4.63;;;1.58;;
36827;SDS011;22766;48.042;11.192;2024-01-27T06:22:26;4.25;;;1.58;;
36827;SDS011;22766;48.042;11.192;2024-01-27T06:24:53;7.13;;;1.92;;
36827;SDS011;22766;48.042;11.192;2024-01-27T06:27:20;1.98;;;1.30;;
36827;SDS011;22766;48.042;11.192;2024-01-27T06:29:46;5.80;;;1.20;;
36827;SDS011;22766;48.042;11.192;2024-01-27T06:32:13;2.83;;;1.30;;
36827;SDS011;22766;48.042;11.192;2024-01-27T06:34:40;5.05;;;1.52;;
36827;SDS011;22766;48.042;11.192;2024-01-27T06:37:07;2.85;;;1.40;;
36827;SDS011;22766;48.042;11.192;2024-01-27T06:39:33;3.38;;;1.52;;
36827;SDS011;22766;48.042;11.192;2024-01-27T06:42:00;1.95;;;1.40;;
36827;SDS011;22766;48.042;11.192;2024-01-27T06:44:27;5.28;;;1.08;;
36827;SDS011;22766;48.042;11.192;2024-01-27T06:46:54;4.18;;;1.65;;
36827;SDS011;22766;48.042;11.192;2024-01-27T06:49:21;3.80;;;1.40;;
36827;SDS011;22766;48.042;11.192;2024-01-27T06:51:48;3.80;;;1.58;;
36827;SDS011;22766;48.042;11.192;2024-01-27T06:54:14;3.65;;;1.40;;
36827;SDS011;22766;48.042;11.192;2024-01-27T06:56:41;3.20;;;1.27;;
36827;SDS011;22766;48.042;11.192;2024-01-27T06:59:11;4.07;;;1.50;;
36827;SDS011;22766;48.042;11.192;2024-01-27T07:01:38;1.73;;;1.27;;
36827;SDS011;22766;48.042;11.192;2024-01-27T07:04:06;3.88;;;1.20;;
36827;SDS011;22766;48.042;11.192;2024-01-27T07:06:33;3.38;;;1.67;;
36827;SDS011;22766;48.042;11.192;2024-01-27T07:09:00;2.03;;;1.30;;
36827;SDS011;22766;48.042;11.192;2024-01-27T07:11:26;5.60;;;1.73;;
36827;SDS011;22766;48.042;11.192;2024-01-27T07:13:53;4.95;;;1.90;;
36827;SDS011;22766;48.042;11.192;2024-01-27T07:16:20;3.50;;;1.52;;
36827;SDS011;22766;48.042;11.192;2024-01-27T07:18:46;2.20;;;1.77;;
36827;SDS011;22766;48.042;11.192;2024-01-27T07:21:17;4.50;;;2.17;;
36827;SDS011;22766;48.042;11.192;2024-01-27T07:23:44;3.75;;;1.77;;
36827;SDS011;22766;48.042;11.192;2024-01-27T07:26:11;3.95;;;2.00;;
36827;SDS011;22766;48.042;11.192;2024-01-27T07:28:38;3.70;;;2.13;;
36827;SDS011;22766;48.042;11.192;2024-01-27T07:31:05;3.65;;;2.30;;
36827;SDS011;22766;48.042;11.192;2024-01-27T07:33:32;5.78;;;2.20;;
36827;SDS011;22766;48.042;11.192;2024-01-27T07:35:58;3.63;;;2.17;;
36827;SDS011;22766;48.042;11.192;2024-01-27T07:38:26;2.00;;;1.70;;
36827;SDS011;22766;48.042;11.192;2024-01-27T07:40:53;8.18;;;1.80;;
36827;SDS011;22766;48.042;11.192;2024-01-27T07:43:20;2.72;;;1.52;;
36827;SDS011;22766;48.042;11.192;2024-01-27T07:45:47;3.88;;;2.03;;
36827;SDS011;22766;48.042;11.192;2024-01-27T07:48:14;5.85;;;1.70;;
36827;SDS011;22766;48.042;11.192;2024-01-27T07:50:41;5.22;;;1.90;;
36827;SDS011;22766;48.042;11.192;2024-01-27T07:53:12;9.35;;;2.92;;
36827;SDS011;22766;48.042;11.192;2024-01-27T07:55:39;7.93;;;2.60;;
36827;SDS011;22766;48.042;11.192;2024-01-27T07:58:06;6.07;;;1.75;;
36827;SDS011;22766;48.042;11.192;2024-01-27T08:00:33;4.63;;;2.00;;
36827;SDS011;22766;48.042;11.192;2024-01-27T08:03:00;5.45;;;1.75;;
36827;SDS011;22766;48.042;11.192;2024-01-27T08:05:26;5.32;;;1.95;;
36827;SDS011;22766;48.042;11.192;2024-01-27T08:07:54;3.67;;;1.75;;
36827;SDS011;22766;48.042;11.192;2024-01-27T08:10:21;4.18;;;1.95;;
36827;SDS011;22766;48.042;11.192;2024-01-27T08:12:48;3.22;;;2.08;;
36827;SDS011;22766;48.042;11.192;2024-01-27T08:15:15;7.53;;;1.85;;
36827;SDS011;22766;48.042;11.192;2024-01-27T08:17:42;3.47;;;1.40;;
36827;SDS011;22766;48.042;11.192;2024-01-27T08:20:09;3.53;;;1.63;;
36827;SDS011;22766;48.042;11.192;2024-01-27T08:22:36;4.32;;;2.03;;
36827;SDS011;22766;48.042;11.192;2024-01-27T08:25:03;8.73;;;2.15;;
36827;SDS011;22766;48.042;11.192;2024-01-27T08:27:29;4.18;;;1.80;;
36827;SDS011;22766;48.042;11.192;2024-01-27T08:29:56;4.28;;;1.70;;
36827;SDS011;22766;48.042;11.192;2024-01-27T08:32:24;7.35;;;2.03;;
36827;SDS011;22766;48.042;11.192;2024-01-27T08:34:51;3.53;;;1.20;;
36827;SDS011;22766;48.042;11.192;2024-01-27T08:37:18;6.05;;;1.92;;
36827;SDS011;22766;48.042;11.192;2024-01-27T08:39:45;1.75;;;1.00;;
36827;SDS011;22766;48.042;11.192;2024-01-27T08:42:13;2.50;;;1.05;;
36827;SDS011;22766;48.042;11.192;2024-01-27T08:44:40;4.38;;;1.60;;
36827;SDS011;22766;48.042;11.192;2024-01-27T08:47:07;2.92;;;1.65;;
36827;SDS011;22766;48.042;11.192;2024-01-27T08:49:34;4.35;;;1.45;;
36827;SDS011;22766;48.042;11.192;2024-01-27T08:52:01;4.03;;;1.20;;
36827;SDS011;22766;48.042;11.192;2024-01-27T08:54:30;3.50;;;1.90;;
36827;SDS011;22766;48.042;11.192;2024-01-27T08:56:57;4.97;;;1.80;;
36827;SDS011;22766;48.042;11.192;2024-01-27T08:59:24;4.40;;;1.52;;
36827;SDS011;22766;48.042;11.192;2024-01-27T09:01:51;2.08;;;1.33;;
36827;SDS011;22766;48.042;11.192;2024-01-27T09:04:18;6.85;;;1.45;;
36827;SDS011;22766;48.042;11.192;2024-01-27T09:06:45;5.25;;;1.65;;
36827;SDS011;22766;48.042;11.192;2024-01-27T09:09:12;1.70;;;1.20;;
36827;SDS011;22766;48.042;11.192;2024-01-27T09:11:40;6.25;;;1.90;;
36827;SDS011;22766;48.042;11.192;2024-01-27T09:14:07;3.42;;;1.50;;
36827;SDS011;22766;48.042;11.192;2024-01-27T09:16:34;7.53;;;1.73;;
36827;SDS011;22766;48.042;11.192;2024-01-27T09:19:01;6.38;;;2.08;;
36827;SDS011;22766;48.042;11.192;2024-01-27T09:21:28;4.53;;;1.70;;
36827;SDS011;22766;48.042;11.192;2024-01-27T09:23:57;5.72;;;1.83;;
36827;SDS011;22766;48.042;11.192;2024-01-27T09:26:24;2.75;;;1.25;;
36827;SDS011;22766;48.042;11.192;2024-01-27T09:28:51;3.28;;;1.48;;
36827;SDS011;22766;48.042;11.192;2024-01-27T09:31:21;3.15;;;1.08;;
36827;SDS011;22766;48.042;11.192;2024-01-27T09:33:50;3.45;;;1.30;;
36827;SDS011;22766;48.042;11.192;2024-01-27T09:36:19;3.97;;;1.38;;
36827;SDS011;22766;48.042;11.192;2024-01-27T09:38:46;3.78;;;1.10;;
36827;SDS011;22766;48.042;11.192;2024-01-27T09:41:13;4.18;;;1.30;;
36827;SDS011;22766;48.042;11.192;2024-01-27T09:43:44;5.60;;;1.08;;
36827;SDS011;22766;48.042;11.192;2024-01-27T09:46:12;3.95;;;1.55;;
36827;SDS011;22766;48.042;11.192;2024-01-27T09:48:39;1.65;;;0.90;;
36827;SDS011;22766;48.042;11.192;2024-01-27T09:51:07;8.32;;;1.20;;
36827;SDS011;22766;48.042;11.192;2024-01-27T09:53:35;4.55;;;1.00;;
36827;SDS011;22766;48.042;11.192;2024-01-27T09:56:03;5.22;;;1.27;;
36827;SDS011;22766;48.042;11.192;2024-01-27T09:58:30;4.83;;;1.10;;
36827;SDS011;22766;48.042;11.192;2024-01-27T10:00:58;4.05;;;1.63;;
36827;SDS011;22766;48.042;11.192;2024-01-27T10:03:26;3.55;;;1.13;;
36827;SDS011;22766;48.042;11.192;2024-01-27T10:05:57;4.20;;;0.80;;
36827;SDS011;22766;48.042;11.192;2024-01-27T10:08:26;3.95;;;1.10;;
36827;SDS011;22766;48.042;11.192;2024-01-27T10:10:54;7.03;;;1.30;;
36827;SDS011;22766;48.042;11.192;2024-01-27T10:13:24;3.72;;;1.15;;
36827;SDS011;22766;48.042;11.192;2024-01-27T10:18:31;4.65;;;1.00;;
36827;SDS011;22766;48.042;11.192;2024-01-27T10:20:59;1.63;;;0.82;;
36827;SDS011;22766;48.042;11.192;2024-01-27T10:23:26;6.43;;;1.08;;
36827;SDS011;22766;48.042;11.192;2024-01-27T10:25:53;4.45;;;1.00;;
36827;SDS011;22766;48.042;11.192;2024-01-27T10:28:24;2.80;;;0.80;;
36827;SDS011;22766;48.042;11.192;2024-01-27T10:30:51;5.18;;;1.42;;
36827;SDS011;22766;48.042;11.192;2024-01-27T10:33:17;4.38;;;1.15;;
36827;SDS011;22766;48.042;11.192;2024-01-27T10:35:45;2.40;;;1.00;;
36827;SDS011;22766;48.042;11.192;2024-01-27T10:38:12;4.60;;;1.20;;
36827;SDS011;22766;48.042;11.192;2024-01-27T10:40:38;8.18;;;1.40;;
36827;SDS011;22766;48.042;11.192;2024-01-27T10:43:06;3.05;;;1.20;;
36827;SDS011;22766;48.042;11.192;2024-01-27T10:45:38;3.80;;;1.13;;
36827;SDS011;22766;48.042;11.192;2024-01-27T10:48:07;6.53;;;1.20;;
36827;SDS011;22766;48.042;11.192;2024-01-27T10:50:40;4.70;;;1.48;;
36827;SDS011;22766;48.042;11.192;2024-01-27T10:53:21;2.80;;;1.10;;
36827;SDS011;22766;48.042;11.192;2024-01-27T10:55:53;2.65;;;0.90;;
36827;SDS011;22766;48.042;11.192;2024-01-27T10:58:22;5.25;;;1.67;;
36827;SDS011;22766;48.042;11.192;2024-01-27T11:00:50;5.43;;;1.38;;
36827;SDS011;22766;48.042;11.192;2024-01-27T11:03:19;4.78;;;1.63;;
36827;SDS011;22766;48.042;11.192;2024-01-27T11:05:47;3.60;;;1.33;;
36827;SDS011;22766;48.042;11.192;2024-01-27T11:08:18;7.35;;;1.25;;
36827;SDS011;22766;48.042;11.192;2024-01-27T11:10:45;5.63;;;1.33;;
36827;SDS011;22766;48.042;11.192;2024-01-27T11:13:12;4.35;;;1.50;;
36827;SDS011;22766;48.042;11.192;2024-01-27T11:15:50;5.28;;;2.55;;
36827;SDS011;22766;48.042;11.192;2024-01-27T11:18:17;3.95;;;1.02;;
36827;SDS011;22766;48.042;11.192;2024-01-27T11:20:45;8.48;;;1.33;;
36827;SDS011;22766;48.042;11.192;2024-01-27T11:23:12;4.53;;;1.30;;
36827;SDS011;22766;48.042;11.192;2024-01-27T11:25:42;6.00;;;1.30;;
36827;SDS011;22766;48.042;11.192;2024-01-27T11:28:13;5.60;;;1.63;;
36827;SDS011;22766;48.042;11.192;2024-01-27T11:30:47;10.55;;;2.10;;
36827;SDS011;22766;48.042;11.192;2024-01-27T11:33:14;2.22;;;1.10;;
36827;SDS011;22766;48.042;11.192;2024-01-27T11:35:41;4.43;;;0.85;;
36827;SDS011;22766;48.042;11.192;2024-01-27T11:38:08;4.78;;;1.20;;
36827;SDS011;22766;48.042;11.192;2024-01-27T11:40:48;3.28;;;1.00;;
36827;SDS011;22766;48.042;11.192;2024-01-27T11:43:16;3.97;;;1.33;;
36827;SDS011;22766;48.042;11.192;2024-01-27T11:45:55;6.57;;;1.10;;
36827;SDS011;22766;48.042;11.192;2024-01-27T11:48:29;10.65;;;2.58;;
36827;SDS011;22766;48.042;11.192;2024-01-27T11:51:03;3.03;;;1.15;;
36827;SDS011;22766;48.042;11.192;2024-01-27T11:53:37;5.30;;;1.23;;
36827;SDS011;22766;48.042;11.192;2024-01-27T11:56:04;4.93;;;1.35;;
36827;SDS011;22766;48.042;11.192;2024-01-27T11:58:31;3.88;;;1.02;;
36827;SDS011;22766;48.042;11.192;2024-01-27T12:00:59;5.40;;;0.82;;
36827;SDS011;22766;48.042;11.192;2024-01-27T12:03:27;4.38;;;1.00;;
36827;SDS011;22766;48.042;11.192;2024-01-27T12:05:55;3.58;;;1.02;;
36827;SDS011;22766;48.042;11.192;2024-01-27T12:08:23;2.50;;;0.93;;
36827;SDS011;22766;48.042;11.192;2024-01-27T12:10:50;8.75;;;1.33;;
36827;SDS011;22766;48.042;11.192;2024-01-27T12:13:18;3.83;;;1.02;;
36827;SDS011;22766;48.042;11.192;2024-01-27T12:15:45;6.15;;;1.35;;
36827;SDS011;22766;48.042;11.192;2024-01-27T12:18:12;2.30;;;0.98;;
36827;SDS011;22766;48.042;11.192;2024-01-27T12:20:40;5.13;;;1.73;;
36827;SDS011;22766;48.042;11.192;2024-01-27T12:23:07;4.65;;;1.38;;
36827;SDS011;22766;48.042;11.192;2024-01-27T12:25:33;6.20;;;1.00;;
36827;SDS011;22766;48.042;11.192;2024-01-27T12:28:03;7.13;;;1.35;;
36827;SDS011;22766;48.042;11.192;2024-01-27T12:30:31;6.78;;;1.02;;
36827;SDS011;22766;48.042;11.192;2024-01-27T12:33:00;4.20;;;1.73;;
36827;SDS011;22766;48.042;11.192;2024-01-27T12:35:28;3.78;;;0.90;;
36827;SDS011;22766;48.042;11.192;2024-01-27T12:37:55;7.03;;;1.15;;
36827;SDS011;22766;48.042;11.192;2024-01-27T12:40:22;4.72;;;1.70;;
36827;SDS011;22766;48.042;11.192;2024-01-27T12:42:50;7.22;;;1.15;;
36827;SDS011;22766;48.042;11.192;2024-01-27T12:45:17;4.55;;;1.38;;
36827;SDS011;22766;48.042;11.192;2024-01-27T12:47:45;3.33;;;1.02;;
36827;SDS011;22766;48.042;11.192;2024-01-27T12:50:12;6.38;;;1.13;;
36827;SDS011;22766;48.042;11.192;2024-01-27T12:52:39;4.03;;;1.02;;
36827;SDS011;22766;48.042;11.192;2024-01-27T12:55:06;2.30;;;0.95;;
36827;SDS011;22766;48.042;11.192;2024-01-27T12:57:34;4.65;;;0.85;;
36827;SDS011;22766;48.042;11.192;2024-01-27T13:00:01;4.13;;;0.70;;
36827;SDS011;22766;48.042;11.192;2024-01-27T13:02:36;5.22;;;1.00;;
36827;SDS011;22766;48.042;11.192;2024-01-27T13:05:03;1.77;;;0.68;;
36827;SDS011;22766;48.042;11.192;2024-01-27T13:07:33;1.73;;;0.60;;
36827;SDS011;22766;48.042;11.192;2024-01-27T13:10:00;2.35;;;0.57;;
36827;SDS011;22766;48.042;11.192;2024-01-27T13:12:27;2.83;;;0.63;;
36827;SDS011;22766;48.042;11.192;2024-01-27T13:14:54;2.13;;;0.57;;
36827;SDS011;22766;48.042;11.192;2024-01-27T13:17:22;1.08;;;0.68;;
36827;SDS011;22766;48.042;11.192;2024-01-27T13:19:49;3.03;;;0.70;;
36827;SDS011;22766;48.042;11.192;2024-01-27T13:22:17;1.73;;;0.60;;
36827;SDS011;22766;48.042;11.192;2024-01-27T13:24:44;4.38;;;0.90;;
36827;SDS011;22766;48.042;11.192;2024-01-27T13:27:11;2.92;;;0.80;;
36827;SDS011;22766;48.042;11.192;2024-01-27T13:29:37;1.65;;;0.60;;
36827;SDS011;22766;48.042;11.192;2024-01-27T13:32:05;3.10;;;0.70;;
36827;SDS011;22766;48.042;11.192;2024-01-27T13:34:32;2.05;;;0.77;;
36827;SDS011;22766;48.042;11.192;2024-01-27T13:36:59;3.92;;;0.88;;
36827;SDS011;22766;48.042;11.192;2024-01-27T13:39:29;2.72;;;0.90;;
36827;SDS011;22766;48.042;11.192;2024-01-27T13:41:56;4.22;;;1.38;;
36827;SDS011;22766;48.042;11.192;2024-01-27T13:44:23;3.78;;;1.00;;
36827;SDS011;22766;48.042;11.192;2024-01-27T13:46:49;4.05;;;1.02;;
36827;SDS011;22766;48.042;11.192;2024-01-27T13:49:16;4.38;;;1.00;;
36827;SDS011;22766;48.042;11.192;2024-01-27T13:51:44;4.07;;;0.90;;
36827;SDS011;22766;48.042;11.192;2024-01-27T13:54:11;5.63;;;1.27;;
36827;SDS011;22766;48.042;11.192;2024-01-27T13:56:38;4.85;;;1.23;;
36827;SDS011;22766;48.042;11.192;2024-01-27T13:59:05;3.88;;;0.77;;
36827;SDS011;22766;48.042;11.192;2024-01-27T14:01:32;2.20;;;0.95;;
36827;SDS011;22766;48.042;11.192;2024-01-27T14:04:00;2.90;;;0.98;;
36827;SDS011;22766;48.042;11.192;2024-01-27T14:06:27;3.90;;;0.80;;
36827;SDS011;22766;48.042;11.192;2024-01-27T14:08:53;3.20;;;0.73;;
36827;SDS011;22766;48.042;11.192;2024-01-27T14:11:20;2.50;;;1.02;;
36827;SDS011;22766;48.042;11.192;2024-01-27T14:13:48;3.13;;;0.93;;
36827;SDS011;22766;48.042;11.192;2024-01-27T14:16:15;5.32;;;2.60;;
36827;SDS011;22766;48.042;11.192;2024-01-27T14:18:45;3.38;;;1.05;;
36827;SDS011;22766;48.042;11.192;2024-01-27T14:21:12;7.70;;;1.27;;
36827;SDS011;22766;48.042;11.192;2024-01-27T14:23:39;0.70;;;0.52;;
36827;SDS011;22766;48.042;11.192;2024-01-27T14:26:06;2.53;;;1.15;;
36827;SDS011;22766;48.042;11.192;2024-01-27T14:28:41;2.53;;;0.70;;
36827;SDS011;22766;48.042;11.192;2024-01-27T14:31:08;2.90;;;1.15;;
36827;SDS011;22766;48.042;11.192;2024-01-27T14:33:38;1.55;;;0.60;;
36827;SDS011;22766;48.042;11.192;2024-01-27T14:36:05;3.03;;;0.73;;
36827;SDS011;22766;48.042;11.192;2024-01-27T14:38:32;3.15;;;0.80;;